sensor_id;sensor_type;location;lat;lon;timestamp;P1;durP1;ratioP1;P2;durP2;ratioP2
15096;SDS011;7649;52.084;7.478;2023-03-01T00:01:14;6.90;;;5.77;;
15096;SDS011;7649;52.084;7.478;2023-03-01T00:03:43;6.93;;;6.23;;
15096;SDS011;7649;52.084;7.478;2023-03-01T00:06:11;8.73;;;6.47;;
15096;SDS011;7649;52.084;7.478;2023-03-01T00:08:40;9.77;;;6.70;;
15096;SDS011;7649;52.084;7.478;2023-03-01T00:11:10;9.63;;;6.80;;
15096;SDS011;7649;52.084;7.478;2023-03-01T00:13:40;8.50;;;6.67;;
15096;SDS011;7649;52.084;7.478;2023-03-01T00:16:09;8.77;;;6.90;;
15096;SDS011;7649;52.084;7.478;2023-03-01T00:18:40;9.20;;;7.30;;
15096;SDS011;7649;52.084;7.478;2023-03-01T00:21:09;7.77;;;6.77;;
15096;SDS011;7649;52.084;7.478;2023-03-01T00:23:37;8.20;;;6.63;;
15096;SDS011;7649;52.084;7.478;2023-03-01T00:26:06;8.90;;;6.77;;
15096;SDS011;7649;52.084;7.478;2023-03-01T00:28:35;9.00;;;7.33;;
15096;SDS011;7649;52.084;7.478;2023-03-01T00:31:03;9.70;;;7.33;;
15096;SDS011;7649;52.084;7.478;2023-03-01T00:33:32;8.23;;;6.40;;
15096;SDS011;7649;52.084;7.478;2023-03-01T00:36:02;9.47;;;7.07;;
15096;SDS011;7649;52.084;7.478;2023-03-01T00:38:34;11.83;;;7.70;;
15096;SDS011;7649;52.084;7.478;2023-03-01T00:41:03;9.47;;;7.47;;
15096;SDS011;7649;52.084;7.478;2023-03-01T00:43:31;9.27;;;6.80;;
15096;SDS011;7649;52.084;7.478;2023-03-01T00:46:03;9.07;;;7.03;;
15096;SDS011;7649;52.084;7.478;2023-03-01T00:48:32;8.13;;;6.97;;
15096;SDS011;7649;52.084;7.478;2023-03-01T00:51:05;10.07;;;7.27;;
15096;SDS011;7649;52.084;7.478;2023-03-01T00:53:34;8.13;;;6.80;;
15096;SDS011;7649;52.084;7.478;2023-03-01T00:56:02;8.87;;;6.33;;
15096;SDS011;7649;52.084;7.478;2023-03-01T00:58:31;7.37;;;6.33;;
15096;SDS011;7649;52.084;7.478;2023-03-01T01:00:59;8.10;;;6.10;;
15096;SDS011;7649;52.084;7.478;2023-03-01T01:03:28;8.10;;;6.60;;
15096;SDS011;7649;52.084;7.478;2023-03-01T01:05:56;7.13;;;6.00;;
15096;SDS011;7649;52.084;7.478;2023-03-01T01:08:25;8.23;;;6.40;;
15096;SDS011;7649;52.084;7.478;2023-03-01T01:10:54;7.03;;;5.63;;
15096;SDS011;7649;52.084;7.478;2023-03-01T01:13:22;8.13;;;5.97;;
15096;SDS011;7649;52.084;7.478;2023-03-01T01:15:50;6.57;;;5.63;;
15096;SDS011;7649;52.084;7.478;2023-03-01T01:18:19;7.80;;;6.10;;
15096;SDS011;7649;52.084;7.478;2023-03-01T01:20:47;6.97;;;5.93;;
15096;SDS011;7649;52.084;7.478;2023-03-01T01:23:15;6.40;;;5.70;;
15096;SDS011;7649;52.084;7.478;2023-03-01T01:25:45;7.70;;;5.50;;
15096;SDS011;7649;52.084;7.478;2023-03-01T01:28:13;7.20;;;5.97;;
15096;SDS011;7649;52.084;7.478;2023-03-01T01:30:42;7.00;;;5.53;;
15096;SDS011;7649;52.084;7.478;2023-03-01T01:33:10;7.80;;;6.07;;
15096;SDS011;7649;52.084;7.478;2023-03-01T01:35:38;6.17;;;5.40;;
15096;SDS011;7649;52.084;7.478;2023-03-01T01:38:06;7.13;;;5.57;;
15096;SDS011;7649;52.084;7.478;2023-03-01T01:40:35;7.03;;;5.43;;
15096;SDS011;7649;52.084;7.478;2023-03-01T01:43:14;6.43;;;5.50;;
15096;SDS011;7649;52.084;7.478;2023-03-01T01:45:44;7.67;;;5.53;;
15096;SDS011;7649;52.084;7.478;2023-03-01T01:48:13;9.60;;;5.70;;
15096;SDS011;7649;52.084;7.478;2023-03-01T01:50:43;11.13;;;5.40;;
15096;SDS011;7649;52.084;7.478;2023-03-01T01:53:15;5.90;;;5.30;;
15096;SDS011;7649;52.084;7.478;2023-03-01T01:55:44;8.07;;;5.33;;
15096;SDS011;7649;52.084;7.478;2023-03-01T01:58:15;6.13;;;5.37;;
15096;SDS011;7649;52.084;7.478;2023-03-01T02:00:45;5.77;;;5.17;;
15096;SDS011;7649;52.084;7.478;2023-03-01T02:03:15;7.20;;;5.43;;
15096;SDS011;7649;52.084;7.478;2023-03-01T02:05:46;8.30;;;6.00;;
15096;SDS011;7649;52.084;7.478;2023-03-01T02:08:21;8.10;;;6.30;;
15096;SDS011;7649;52.084;7.478;2023-03-01T02:10:50;7.03;;;5.03;;
15096;SDS011;7649;52.084;7.478;2023-03-01T02:13:21;6.40;;;5.43;;
15096;SDS011;7649;52.084;7.478;2023-03-01T02:15:49;6.33;;;5.73;;
15096;SDS011;7649;52.084;7.478;2023-03-01T02:18:18;6.33;;;5.60;;
15096;SDS011;7649;52.084;7.478;2023-03-01T02:20:49;7.03;;;5.30;;
15096;SDS011;7649;52.084;7.478;2023-03-01T02:23:21;6.07;;;5.47;;
15096;SDS011;7649;52.084;7.478;2023-03-01T02:25:52;6.90;;;5.27;;
15096;SDS011;7649;52.084;7.478;2023-03-01T02:28:26;6.23;;;5.33;;
15096;SDS011;7649;52.084;7.478;2023-03-01T02:30:54;9.50;;;5.63;;
15096;SDS011;7649;52.084;7.478;2023-03-01T02:33:40;6.20;;;5.60;;
15096;SDS011;7649;52.084;7.478;2023-03-01T02:36:10;7.27;;;5.40;;
15096;SDS011;7649;52.084;7.478;2023-03-01T02:38:40;5.20;;;4.73;;
15096;SDS011;7649;52.084;7.478;2023-03-01T02:41:08;7.20;;;5.80;;
15096;SDS011;7649;52.084;7.478;2023-03-01T02:43:40;8.43;;;5.20;;
15096;SDS011;7649;52.084;7.478;2023-03-01T02:46:08;6.03;;;5.47;;
15096;SDS011;7649;52.084;7.478;2023-03-01T02:48:42;6.20;;;5.40;;
15096;SDS011;7649;52.084;7.478;2023-03-01T02:51:14;8.83;;;5.50;;
15096;SDS011;7649;52.084;7.478;2023-03-01T02:53:48;6.10;;;5.50;;
15096;SDS011;7649;52.084;7.478;2023-03-01T02:56:16;5.90;;;5.30;;
15096;SDS011;7649;52.084;7.478;2023-03-01T02:58:46;10.47;;;5.50;;
15096;SDS011;7649;52.084;7.478;2023-03-01T03:01:17;6.13;;;5.30;;
15096;SDS011;7649;52.084;7.478;2023-03-01T03:03:46;6.67;;;5.97;;
15096;SDS011;7649;52.084;7.478;2023-03-01T03:06:14;7.00;;;5.70;;
15096;SDS011;7649;52.084;7.478;2023-03-01T03:08:42;6.63;;;5.90;;
15096;SDS011;7649;52.084;7.478;2023-03-01T03:11:11;7.13;;;5.43;;
15096;SDS011;7649;52.084;7.478;2023-03-01T03:13:39;7.57;;;5.90;;
15096;SDS011;7649;52.084;7.478;2023-03-01T03:16:15;5.70;;;5.20;;
15096;SDS011;7649;52.084;7.478;2023-03-01T03:18:44;5.90;;;5.17;;
15096;SDS011;7649;52.084;7.478;2023-03-01T03:21:12;6.73;;;5.43;;
15096;SDS011;7649;52.084;7.478;2023-03-01T03:23:40;7.17;;;5.30;;
15096;SDS011;7649;52.084;7.478;2023-03-01T03:26:09;6.00;;;5.40;;
15096;SDS011;7649;52.084;7.478;2023-03-01T03:28:39;7.27;;;5.70;;
15096;SDS011;7649;52.084;7.478;2023-03-01T03:31:07;8.33;;;5.43;;
15096;SDS011;7649;52.084;7.478;2023-03-01T03:33:37;7.97;;;5.83;;
15096;SDS011;7649;52.084;7.478;2023-03-01T03:36:06;6.80;;;5.67;;
15096;SDS011;7649;52.084;7.478;2023-03-01T03:38:39;7.33;;;5.83;;
15096;SDS011;7649;52.084;7.478;2023-03-01T03:41:07;7.83;;;6.13;;
15096;SDS011;7649;52.084;7.478;2023-03-01T03:43:36;12.40;;;6.60;;
15096;SDS011;7649;52.084;7.478;2023-03-01T03:46:04;7.83;;;5.87;;
15096;SDS011;7649;52.084;7.478;2023-03-01T03:48:33;7.57;;;5.83;;
15096;SDS011;7649;52.084;7.478;2023-03-01T03:51:03;7.70;;;6.20;;
15096;SDS011;7649;52.084;7.478;2023-03-01T03:53:32;7.37;;;5.80;;
15096;SDS011;7649;52.084;7.478;2023-03-01T03:56:00;6.63;;;6.00;;
15096;SDS011;7649;52.084;7.478;2023-03-01T03:58:31;8.20;;;6.03;;
15096;SDS011;7649;52.084;7.478;2023-03-01T04:00:59;7.90;;;5.80;;
15096;SDS011;7649;52.084;7.478;2023-03-01T04:03:28;6.53;;;5.63;;
15096;SDS011;7649;52.084;7.478;2023-03-01T04:05:58;7.83;;;5.77;;
15096;SDS011;7649;52.084;7.478;2023-03-01T04:08:28;8.60;;;6.17;;
15096;SDS011;7649;52.084;7.478;2023-03-01T04:10:57;8.20;;;6.07;;
15096;SDS011;7649;52.084;7.478;2023-03-01T04:13:26;9.93;;;6.43;;
15096;SDS011;7649;52.084;7.478;2023-03-01T04:15:54;8.77;;;6.23;;
15096;SDS011;7649;52.084;7.478;2023-03-01T04:18:23;8.60;;;6.30;;
15096;SDS011;7649;52.084;7.478;2023-03-01T04:20:52;10.40;;;6.17;;
15096;SDS011;7649;52.084;7.478;2023-03-01T04:23:21;8.10;;;6.20;;
15096;SDS011;7649;52.084;7.478;2023-03-01T04:25:51;7.37;;;6.27;;
15096;SDS011;7649;52.084;7.478;2023-03-01T04:28:21;9.07;;;6.07;;
15096;SDS011;7649;52.084;7.478;2023-03-01T04:30:50;8.53;;;6.80;;
15096;SDS011;7649;52.084;7.478;2023-03-01T04:33:19;9.63;;;6.77;;
15096;SDS011;7649;52.084;7.478;2023-03-01T04:35:47;8.90;;;6.53;;
15096;SDS011;7649;52.084;7.478;2023-03-01T04:38:16;9.50;;;7.40;;
15096;SDS011;7649;52.084;7.478;2023-03-01T04:40:45;10.67;;;7.33;;
15096;SDS011;7649;52.084;7.478;2023-03-01T04:43:15;10.67;;;8.30;;
15096;SDS011;7649;52.084;7.478;2023-03-01T04:45:43;20.63;;;12.77;;
15096;SDS011;7649;52.084;7.478;2023-03-01T04:48:12;20.07;;;10.57;;
15096;SDS011;7649;52.084;7.478;2023-03-01T04:50:40;14.13;;;8.37;;
15096;SDS011;7649;52.084;7.478;2023-03-01T04:53:08;9.53;;;7.07;;
15096;SDS011;7649;52.084;7.478;2023-03-01T04:55:37;8.60;;;6.43;;
15096;SDS011;7649;52.084;7.478;2023-03-01T04:58:05;8.17;;;6.57;;
15096;SDS011;7649;52.084;7.478;2023-03-01T05:00:35;7.57;;;6.50;;
15096;SDS011;7649;52.084;7.478;2023-03-01T05:03:03;9.13;;;6.50;;
15096;SDS011;7649;52.084;7.478;2023-03-01T05:05:32;8.23;;;7.07;;
15096;SDS011;7649;52.084;7.478;2023-03-01T05:08:03;10.30;;;6.67;;
15096;SDS011;7649;52.084;7.478;2023-03-01T05:10:32;8.93;;;6.60;;
15096;SDS011;7649;52.084;7.478;2023-03-01T05:13:05;9.07;;;7.33;;
15096;SDS011;7649;52.084;7.478;2023-03-01T05:15:35;7.20;;;6.50;;
15096;SDS011;7649;52.084;7.478;2023-03-01T05:18:03;10.13;;;7.00;;
15096;SDS011;7649;52.084;7.478;2023-03-01T05:20:37;10.77;;;6.47;;
15096;SDS011;7649;52.084;7.478;2023-03-01T05:23:06;11.17;;;7.03;;
15096;SDS011;7649;52.084;7.478;2023-03-01T05:25:34;9.83;;;6.97;;
15096;SDS011;7649;52.084;7.478;2023-03-01T05:28:06;10.33;;;7.23;;
15096;SDS011;7649;52.084;7.478;2023-03-01T05:30:37;12.47;;;8.30;;
15096;SDS011;7649;52.084;7.478;2023-03-01T05:33:06;17.53;;;8.57;;
15096;SDS011;7649;52.084;7.478;2023-03-01T05:35:40;14.77;;;10.63;;
15096;SDS011;7649;52.084;7.478;2023-03-01T05:38:08;15.83;;;10.00;;
15096;SDS011;7649;52.084;7.478;2023-03-01T05:40:39;8.90;;;7.60;;
15096;SDS011;7649;52.084;7.478;2023-03-01T05:43:08;19.80;;;8.27;;
15096;SDS011;7649;52.084;7.478;2023-03-01T05:45:37;14.43;;;8.07;;
15096;SDS011;7649;52.084;7.478;2023-03-01T05:48:07;15.07;;;7.90;;
15096;SDS011;7649;52.084;7.478;2023-03-01T05:50:37;11.93;;;7.67;;
15096;SDS011;7649;52.084;7.478;2023-03-01T05:53:07;12.30;;;7.90;;
15096;SDS011;7649;52.084;7.478;2023-03-01T05:55:37;11.67;;;7.80;;
15096;SDS011;7649;52.084;7.478;2023-03-01T05:58:06;10.80;;;7.33;;
15096;SDS011;7649;52.084;7.478;2023-03-01T06:00:35;17.83;;;7.90;;
15096;SDS011;7649;52.084;7.478;2023-03-01T06:03:04;13.30;;;7.40;;
15096;SDS011;7649;52.084;7.478;2023-03-01T06:05:33;12.43;;;7.63;;
15096;SDS011;7649;52.084;7.478;2023-03-01T06:08:01;15.77;;;9.03;;
15096;SDS011;7649;52.084;7.478;2023-03-01T06:10:30;10.50;;;7.97;;
15096;SDS011;7649;52.084;7.478;2023-03-01T06:12:58;11.40;;;7.60;;
15096;SDS011;7649;52.084;7.478;2023-03-01T06:15:27;13.27;;;7.80;;
15096;SDS011;7649;52.084;7.478;2023-03-01T06:17:55;9.83;;;7.70;;
15096;SDS011;7649;52.084;7.478;2023-03-01T06:20:27;13.23;;;7.20;;
15096;SDS011;7649;52.084;7.478;2023-03-01T06:22:56;8.73;;;7.30;;
15096;SDS011;7649;52.084;7.478;2023-03-01T06:25:26;10.27;;;7.63;;
15096;SDS011;7649;52.084;7.478;2023-03-01T06:27:54;9.97;;;7.40;;
15096;SDS011;7649;52.084;7.478;2023-03-01T06:30:23;10.53;;;7.87;;
15096;SDS011;7649;52.084;7.478;2023-03-01T06:32:52;10.57;;;8.00;;
15096;SDS011;7649;52.084;7.478;2023-03-01T06:35:28;21.77;;;15.80;;
15096;SDS011;7649;52.084;7.478;2023-03-01T06:37:57;15.47;;;9.33;;
15096;SDS011;7649;52.084;7.478;2023-03-01T06:40:26;16.73;;;10.70;;
15096;SDS011;7649;52.084;7.478;2023-03-01T06:42:54;15.13;;;10.80;;
15096;SDS011;7649;52.084;7.478;2023-03-01T06:45:24;15.57;;;10.97;;
15096;SDS011;7649;52.084;7.478;2023-03-01T06:47:52;15.27;;;11.30;;
15096;SDS011;7649;52.084;7.478;2023-03-01T06:50:20;14.60;;;10.37;;
15096;SDS011;7649;52.084;7.478;2023-03-01T06:52:53;14.37;;;9.90;;
15096;SDS011;7649;52.084;7.478;2023-03-01T06:55:23;10.63;;;8.53;;
15096;SDS011;7649;52.084;7.478;2023-03-01T06:57:53;11.20;;;7.97;;
15096;SDS011;7649;52.084;7.478;2023-03-01T07:00:23;9.47;;;7.70;;
15096;SDS011;7649;52.084;7.478;2023-03-01T07:02:51;10.90;;;8.13;;
15096;SDS011;7649;52.084;7.478;2023-03-01T07:05:23;10.53;;;8.30;;
15096;SDS011;7649;52.084;7.478;2023-03-01T07:07:52;15.63;;;8.63;;
15096;SDS011;7649;52.084;7.478;2023-03-01T07:10:21;12.03;;;9.00;;
15096;SDS011;7649;52.084;7.478;2023-03-01T07:12:50;12.43;;;7.93;;
15096;SDS011;7649;52.084;7.478;2023-03-01T07:15:18;11.73;;;7.70;;
15096;SDS011;7649;52.084;7.478;2023-03-01T07:17:46;10.33;;;7.80;;
15096;SDS011;7649;52.084;7.478;2023-03-01T07:20:17;12.67;;;8.33;;
15096;SDS011;7649;52.084;7.478;2023-03-01T07:22:47;12.80;;;7.87;;
15096;SDS011;7649;52.084;7.478;2023-03-01T07:25:17;29.53;;;23.03;;
15096;SDS011;7649;52.084;7.478;2023-03-01T07:27:48;11.67;;;8.60;;
15096;SDS011;7649;52.084;7.478;2023-03-01T07:30:17;12.73;;;10.20;;
15096;SDS011;7649;52.084;7.478;2023-03-01T07:32:45;13.07;;;10.33;;
15096;SDS011;7649;52.084;7.478;2023-03-01T07:35:14;11.40;;;8.70;;
15096;SDS011;7649;52.084;7.478;2023-03-01T07:37:42;14.33;;;8.77;;
15096;SDS011;7649;52.084;7.478;2023-03-01T07:40:11;10.07;;;8.43;;
15096;SDS011;7649;52.084;7.478;2023-03-01T07:42:41;11.77;;;7.40;;
15096;SDS011;7649;52.084;7.478;2023-03-01T07:45:09;10.63;;;7.87;;
15096;SDS011;7649;52.084;7.478;2023-03-01T07:47:39;9.57;;;7.33;;
15096;SDS011;7649;52.084;7.478;2023-03-01T07:50:08;12.50;;;9.10;;
15096;SDS011;7649;52.084;7.478;2023-03-01T07:52:37;11.63;;;7.93;;
15096;SDS011;7649;52.084;7.478;2023-03-01T07:55:06;13.50;;;8.00;;
15096;SDS011;7649;52.084;7.478;2023-03-01T07:57:34;9.27;;;7.77;;
15096;SDS011;7649;52.084;7.478;2023-03-01T08:00:05;10.60;;;7.87;;
15096;SDS011;7649;52.084;7.478;2023-03-01T08:02:33;10.77;;;7.87;;
15096;SDS011;7649;52.084;7.478;2023-03-01T08:05:02;9.53;;;7.50;;
15096;SDS011;7649;52.084;7.478;2023-03-01T08:07:30;12.20;;;7.13;;
15096;SDS011;7649;52.084;7.478;2023-03-01T08:09:58;12.17;;;7.17;;
15096;SDS011;7649;52.084;7.478;2023-03-01T08:12:27;12.47;;;7.10;;
15096;SDS011;7649;52.084;7.478;2023-03-01T08:14:56;7.20;;;6.37;;
15096;SDS011;7649;52.084;7.478;2023-03-01T08:17:26;8.83;;;7.17;;
15096;SDS011;7649;52.084;7.478;2023-03-01T08:19:54;8.50;;;6.00;;
15096;SDS011;7649;52.084;7.478;2023-03-01T08:22:23;9.17;;;6.63;;
15096;SDS011;7649;52.084;7.478;2023-03-01T08:24:51;9.13;;;6.63;;
15096;SDS011;7649;52.084;7.478;2023-03-01T08:27:21;6.20;;;5.43;;
15096;SDS011;7649;52.084;7.478;2023-03-01T08:29:50;8.90;;;5.90;;
15096;SDS011;7649;52.084;7.478;2023-03-01T08:32:19;7.43;;;6.37;;
15096;SDS011;7649;52.084;7.478;2023-03-01T08:34:49;12.03;;;5.50;;
15096;SDS011;7649;52.084;7.478;2023-03-01T08:37:17;10.07;;;6.47;;
15096;SDS011;7649;52.084;7.478;2023-03-01T08:39:46;9.53;;;6.37;;
15096;SDS011;7649;52.084;7.478;2023-03-01T08:42:14;7.07;;;5.43;;
15096;SDS011;7649;52.084;7.478;2023-03-01T08:44:43;5.83;;;5.30;;
15096;SDS011;7649;52.084;7.478;2023-03-01T08:47:12;6.30;;;5.53;;
15096;SDS011;7649;52.084;7.478;2023-03-01T08:49:40;7.40;;;6.57;;
15096;SDS011;7649;52.084;7.478;2023-03-01T08:52:10;8.10;;;5.33;;
15096;SDS011;7649;52.084;7.478;2023-03-01T08:54:38;6.50;;;5.43;;
15096;SDS011;7649;52.084;7.478;2023-03-01T08:57:06;9.03;;;5.80;;
15096;SDS011;7649;52.084;7.478;2023-03-01T08:59:35;8.07;;;5.67;;
15096;SDS011;7649;52.084;7.478;2023-03-01T09:02:04;9.57;;;5.87;;
15096;SDS011;7649;52.084;7.478;2023-03-01T09:04:32;10.70;;;6.53;;
15096;SDS011;7649;52.084;7.478;2023-03-01T09:07:00;8.87;;;5.87;;
15096;SDS011;7649;52.084;7.478;2023-03-01T09:09:30;8.90;;;5.97;;
15096;SDS011;7649;52.084;7.478;2023-03-01T09:11:58;16.20;;;6.80;;
15096;SDS011;7649;52.084;7.478;2023-03-01T09:14:27;10.23;;;6.67;;
15096;SDS011;7649;52.084;7.478;2023-03-01T09:16:55;16.07;;;7.00;;
15096;SDS011;7649;52.084;7.478;2023-03-01T09:19:23;12.00;;;7.23;;
15096;SDS011;7649;52.084;7.478;2023-03-01T09:21:52;13.73;;;6.63;;
15096;SDS011;7649;52.084;7.478;2023-03-01T09:24:22;11.10;;;7.17;;
15096;SDS011;7649;52.084;7.478;2023-03-01T09:26:54;9.17;;;6.63;;
15096;SDS011;7649;52.084;7.478;2023-03-01T09:29:22;16.30;;;7.03;;
15096;SDS011;7649;52.084;7.478;2023-03-01T09:31:52;14.33;;;7.50;;
15096;SDS011;7649;52.084;7.478;2023-03-01T09:34:21;16.00;;;7.97;;
15096;SDS011;7649;52.084;7.478;2023-03-01T09:36:50;9.47;;;6.87;;
15096;SDS011;7649;52.084;7.478;2023-03-01T09:39:18;14.10;;;8.03;;
15096;SDS011;7649;52.084;7.478;2023-03-01T09:41:49;11.07;;;8.00;;
15096;SDS011;7649;52.084;7.478;2023-03-01T09:44:25;13.27;;;8.43;;
15096;SDS011;7649;52.084;7.478;2023-03-01T09:46:55;12.00;;;8.20;;
15096;SDS011;7649;52.084;7.478;2023-03-01T09:49:24;11.27;;;7.20;;
15096;SDS011;7649;52.084;7.478;2023-03-01T09:51:54;9.20;;;8.30;;
15096;SDS011;7649;52.084;7.478;2023-03-01T09:54:23;10.73;;;7.67;;
15096;SDS011;7649;52.084;7.478;2023-03-01T09:56:54;10.03;;;7.57;;
15096;SDS011;7649;52.084;7.478;2023-03-01T09:59:27;9.37;;;7.10;;
15096;SDS011;7649;52.084;7.478;2023-03-01T10:02:01;9.67;;;7.13;;
15096;SDS011;7649;52.084;7.478;2023-03-01T10:04:37;9.67;;;6.93;;
15096;SDS011;7649;52.084;7.478;2023-03-01T10:07:15;9.13;;;7.33;;
15096;SDS011;7649;52.084;7.478;2023-03-01T10:09:45;7.70;;;6.87;;
15096;SDS011;7649;52.084;7.478;2023-03-01T10:12:15;8.80;;;7.17;;
15096;SDS011;7649;52.084;7.478;2023-03-01T10:14:48;11.60;;;6.80;;
15096;SDS011;7649;52.084;7.478;2023-03-01T10:17:23;10.10;;;7.10;;
15096;SDS011;7649;52.084;7.478;2023-03-01T10:19:52;10.37;;;7.67;;
15096;SDS011;7649;52.084;7.478;2023-03-01T10:22:21;20.87;;;7.83;;
15096;SDS011;7649;52.084;7.478;2023-03-01T10:24:51;9.37;;;7.67;;
15096;SDS011;7649;52.084;7.478;2023-03-01T10:27:21;9.17;;;7.00;;
15096;SDS011;7649;52.084;7.478;2023-03-01T10:29:54;9.23;;;6.90;;
15096;SDS011;7649;52.084;7.478;2023-03-01T10:32:25;8.57;;;7.07;;
15096;SDS011;7649;52.084;7.478;2023-03-01T10:34:54;16.53;;;8.27;;
15096;SDS011;7649;52.084;7.478;2023-03-01T10:37:24;8.30;;;6.90;;
15096;SDS011;7649;52.084;7.478;2023-03-01T10:39:54;9.47;;;6.83;;
15096;SDS011;7649;52.084;7.478;2023-03-01T10:42:25;8.77;;;7.27;;
15096;SDS011;7649;52.084;7.478;2023-03-01T10:44:55;11.40;;;6.77;;
15096;SDS011;7649;52.084;7.478;2023-03-01T10:47:25;7.77;;;6.60;;
15096;SDS011;7649;52.084;7.478;2023-03-01T10:49:55;15.43;;;6.87;;
15096;SDS011;7649;52.084;7.478;2023-03-01T10:52:25;16.50;;;8.60;;
15096;SDS011;7649;52.084;7.478;2023-03-01T10:54:55;7.40;;;6.20;;
15096;SDS011;7649;52.084;7.478;2023-03-01T10:57:31;7.00;;;6.17;;
15096;SDS011;7649;52.084;7.478;2023-03-01T11:00:20;7.17;;;6.40;;
15096;SDS011;7649;52.084;7.478;2023-03-01T11:02:50;7.77;;;6.30;;
15096;SDS011;7649;52.084;7.478;2023-03-01T11:05:22;6.90;;;6.17;;
15096;SDS011;7649;52.084;7.478;2023-03-01T11:07:55;9.90;;;6.30;;
15096;SDS011;7649;52.084;7.478;2023-03-01T11:10:24;13.40;;;6.83;;
15096;SDS011;7649;52.084;7.478;2023-03-01T11:12:53;6.90;;;6.20;;
15096;SDS011;7649;52.084;7.478;2023-03-01T11:15:24;8.23;;;5.73;;
15096;SDS011;7649;52.084;7.478;2023-03-01T11:17:53;10.03;;;6.47;;
15096;SDS011;7649;52.084;7.478;2023-03-01T11:20:38;8.17;;;6.80;;
15096;SDS011;7649;52.084;7.478;2023-03-01T11:23:09;10.60;;;5.80;;
15096;SDS011;7649;52.084;7.478;2023-03-01T11:25:39;11.87;;;6.23;;
15096;SDS011;7649;52.084;7.478;2023-03-01T11:28:10;10.67;;;5.57;;
15096;SDS011;7649;52.084;7.478;2023-03-01T11:30:43;6.07;;;5.47;;
15096;SDS011;7649;52.084;7.478;2023-03-01T11:33:34;6.10;;;5.50;;
15096;SDS011;7649;52.084;7.478;2023-03-01T11:36:06;6.63;;;5.80;;
15096;SDS011;7649;52.084;7.478;2023-03-01T11:38:36;6.67;;;5.17;;
15096;SDS011;7649;52.084;7.478;2023-03-01T11:41:05;8.33;;;5.67;;
15096;SDS011;7649;52.084;7.478;2023-03-01T11:43:36;6.13;;;5.37;;
15096;SDS011;7649;52.084;7.478;2023-03-01T11:48:55;9.17;;;5.80;;
15096;SDS011;7649;52.084;7.478;2023-03-01T11:51:32;9.33;;;6.20;;
15096;SDS011;7649;52.084;7.478;2023-03-01T11:54:11;7.47;;;5.50;;
15096;SDS011;7649;52.084;7.478;2023-03-01T11:56:43;7.50;;;5.43;;
15096;SDS011;7649;52.084;7.478;2023-03-01T11:59:18;9.43;;;5.67;;
15096;SDS011;7649;52.084;7.478;2023-03-01T12:01:53;9.23;;;5.40;;
15096;SDS011;7649;52.084;7.478;2023-03-01T12:04:45;5.83;;;5.23;;
15096;SDS011;7649;52.084;7.478;2023-03-01T12:07:18;5.73;;;5.17;;
15096;SDS011;7649;52.084;7.478;2023-03-01T12:09:52;7.20;;;4.80;;
15096;SDS011;7649;52.084;7.478;2023-03-01T12:12:38;5.03;;;4.63;;
15096;SDS011;7649;52.084;7.478;2023-03-01T12:15:18;6.40;;;4.87;;
15096;SDS011;7649;52.084;7.478;2023-03-01T12:17:51;5.23;;;4.60;;
15096;SDS011;7649;52.084;7.478;2023-03-01T12:20:29;5.90;;;5.10;;
15096;SDS011;7649;52.084;7.478;2023-03-01T12:23:14;6.33;;;4.97;;
15096;SDS011;7649;52.084;7.478;2023-03-01T12:25:48;5.60;;;4.93;;
15096;SDS011;7649;52.084;7.478;2023-03-01T12:28:25;5.37;;;4.57;;
15096;SDS011;7649;52.084;7.478;2023-03-01T12:31:03;5.17;;;4.67;;
15096;SDS011;7649;52.084;7.478;2023-03-01T12:33:37;6.47;;;4.67;;
15096;SDS011;7649;52.084;7.478;2023-03-01T12:36:12;9.53;;;4.53;;
15096;SDS011;7649;52.084;7.478;2023-03-01T12:38:45;7.53;;;5.00;;
15096;SDS011;7649;52.084;7.478;2023-03-01T12:41:30;4.20;;;3.80;;
15096;SDS011;7649;52.084;7.478;2023-03-01T12:44:05;5.07;;;4.20;;
15096;SDS011;7649;52.084;7.478;2023-03-01T12:49:24;5.70;;;4.20;;
15096;SDS011;7649;52.084;7.478;2023-03-01T12:51:57;4.63;;;3.73;;
15096;SDS011;7649;52.084;7.478;2023-03-01T12:54:27;8.57;;;4.67;;
15096;SDS011;7649;52.084;7.478;2023-03-01T12:56:57;7.27;;;4.97;;
15096;SDS011;7649;52.084;7.478;2023-03-01T12:59:28;5.60;;;4.47;;
15096;SDS011;7649;52.084;7.478;2023-03-01T13:02:02;6.27;;;4.63;;
15096;SDS011;7649;52.084;7.478;2023-03-01T13:04:35;8.63;;;4.67;;
15096;SDS011;7649;52.084;7.478;2023-03-01T13:07:11;5.13;;;4.63;;
15096;SDS011;7649;52.084;7.478;2023-03-01T13:09:43;9.53;;;4.60;;
15096;SDS011;7649;52.084;7.478;2023-03-01T13:15:03;6.07;;;4.57;;
15096;SDS011;7649;52.084;7.478;2023-03-01T13:17:33;8.33;;;4.97;;
15096;SDS011;7649;52.084;7.478;2023-03-01T13:20:15;5.83;;;4.40;;
15096;SDS011;7649;52.084;7.478;2023-03-01T13:22:46;6.90;;;5.10;;
15096;SDS011;7649;52.084;7.478;2023-03-01T13:25:20;5.70;;;4.57;;
15096;SDS011;7649;52.084;7.478;2023-03-01T13:30:41;9.30;;;5.30;;
15096;SDS011;7649;52.084;7.478;2023-03-01T13:35:57;46.97;;;8.50;;
15096;SDS011;7649;52.084;7.478;2023-03-01T13:38:37;7.70;;;5.30;;
15096;SDS011;7649;52.084;7.478;2023-03-01T13:41:05;33.30;;;6.63;;
15096;SDS011;7649;52.084;7.478;2023-03-01T13:43:34;6.57;;;5.03;;
15096;SDS011;7649;52.084;7.478;2023-03-01T13:46:07;16.70;;;5.90;;
15096;SDS011;7649;52.084;7.478;2023-03-01T13:48:37;8.37;;;4.67;;
15096;SDS011;7649;52.084;7.478;2023-03-01T13:51:07;5.20;;;4.33;;
15096;SDS011;7649;52.084;7.478;2023-03-01T13:53:39;7.83;;;4.43;;
15096;SDS011;7649;52.084;7.478;2023-03-01T13:56:09;5.33;;;4.10;;
15096;SDS011;7649;52.084;7.478;2023-03-01T13:58:44;9.70;;;4.60;;
15096;SDS011;7649;52.084;7.478;2023-03-01T14:01:20;10.30;;;4.57;;
15096;SDS011;7649;52.084;7.478;2023-03-01T14:03:49;4.37;;;3.97;;
15096;SDS011;7649;52.084;7.478;2023-03-01T14:06:19;6.50;;;4.07;;
15096;SDS011;7649;52.084;7.478;2023-03-01T14:08:50;6.40;;;4.00;;
15096;SDS011;7649;52.084;7.478;2023-03-01T14:11:28;5.37;;;4.00;;
15096;SDS011;7649;52.084;7.478;2023-03-01T14:14:06;5.70;;;4.03;;
15096;SDS011;7649;52.084;7.478;2023-03-01T14:16:38;6.97;;;4.20;;
15096;SDS011;7649;52.084;7.478;2023-03-01T14:19:15;5.33;;;3.87;;
15096;SDS011;7649;52.084;7.478;2023-03-01T14:21:59;9.10;;;4.50;;
15096;SDS011;7649;52.084;7.478;2023-03-01T14:24:32;8.30;;;4.40;;
15096;SDS011;7649;52.084;7.478;2023-03-01T14:27:02;9.37;;;4.57;;
15096;SDS011;7649;52.084;7.478;2023-03-01T14:29:33;4.77;;;4.20;;
15096;SDS011;7649;52.084;7.478;2023-03-01T14:32:09;5.53;;;4.20;;
15096;SDS011;7649;52.084;7.478;2023-03-01T14:34:42;7.40;;;3.87;;
15096;SDS011;7649;52.084;7.478;2023-03-01T14:37:15;6.70;;;4.30;;
15096;SDS011;7649;52.084;7.478;2023-03-01T14:39:47;4.73;;;3.70;;
15096;SDS011;7649;52.084;7.478;2023-03-01T14:42:15;6.77;;;4.03;;
15096;SDS011;7649;52.084;7.478;2023-03-01T14:44:44;5.00;;;3.90;;
15096;SDS011;7649;52.084;7.478;2023-03-01T14:47:14;4.47;;;3.80;;
15096;SDS011;7649;52.084;7.478;2023-03-01T14:49:43;5.83;;;3.83;;
15096;SDS011;7649;52.084;7.478;2023-03-01T14:52:18;9.97;;;4.23;;
15096;SDS011;7649;52.084;7.478;2023-03-01T14:54:50;15.00;;;4.73;;
15096;SDS011;7649;52.084;7.478;2023-03-01T14:57:21;7.33;;;3.50;;
15096;SDS011;7649;52.084;7.478;2023-03-01T14:59:50;9.33;;;3.50;;
15096;SDS011;7649;52.084;7.478;2023-03-01T15:02:22;11.00;;;3.80;;
15096;SDS011;7649;52.084;7.478;2023-03-01T15:04:51;7.43;;;3.93;;
15096;SDS011;7649;52.084;7.478;2023-03-01T15:07:29;3.53;;;3.23;;
15096;SDS011;7649;52.084;7.478;2023-03-01T15:09:59;6.23;;;3.63;;
15096;SDS011;7649;52.084;7.478;2023-03-01T15:12:36;4.07;;;3.27;;
15096;SDS011;7649;52.084;7.478;2023-03-01T15:15:21;3.47;;;3.10;;
15096;SDS011;7649;52.084;7.478;2023-03-01T15:17:53;4.93;;;3.57;;
15096;SDS011;7649;52.084;7.478;2023-03-01T15:20:23;3.53;;;3.23;;
15096;SDS011;7649;52.084;7.478;2023-03-01T15:22:53;4.60;;;3.00;;
15096;SDS011;7649;52.084;7.478;2023-03-01T15:25:27;4.47;;;3.47;;
15096;SDS011;7649;52.084;7.478;2023-03-01T15:27:59;5.23;;;3.80;;
15096;SDS011;7649;52.084;7.478;2023-03-01T15:30:29;4.00;;;3.63;;
15096;SDS011;7649;52.084;7.478;2023-03-01T15:33:17;6.00;;;3.57;;